createdAt,value
2023-12-31T00:00:43.200Z,6.07
2023-12-31T00:03:30.454Z,5.57
2023-12-31T00:05:57.470Z,6.50
2023-12-31T00:08:24.698Z,5.70
2023-12-31T00:10:51.604Z,7.07
2023-12-31T00:13:18.982Z,8.27
2023-12-31T00:15:45.854Z,7.63
2023-12-31T00:18:13.171Z,6.83
2023-12-31T00:20:40.326Z,5.80
2023-12-31T00:23:07.884Z,10.47
2023-12-31T00:25:35.069Z,8.50
2023-12-31T00:28:02.253Z,12.47
2023-12-31T00:30:29.983Z,6.17
2023-12-31T00:32:57.226Z,12.10
2023-12-31T00:35:24.577Z,8.43
2023-12-31T00:37:51.787Z,9.73
2023-12-31T00:40:18.924Z,9.17
2023-12-31T00:42:46.160Z,10.53
2023-12-31T00:45:13.695Z,6.87
2023-12-31T00:47:41.202Z,8.13
2023-12-31T00:50:08.746Z,10.20
2023-12-31T00:52:35.972Z,12.17
2023-12-31T00:55:03.085Z,11.00
2023-12-31T00:57:30.901Z,7.20
2023-12-31T00:59:59.055Z,7.63
2023-12-31T01:02:26.215Z,11.70
2023-12-31T01:04:53.210Z,12.10
2023-12-31T01:07:20.692Z,11.30
2023-12-31T01:09:47.703Z,10.27
2023-12-31T01:12:14.884Z,10.07
2023-12-31T01:14:42.290Z,10.10
2023-12-31T01:17:12.466Z,11.93
2023-12-31T01:19:39.656Z,9.57
2023-12-31T01:22:07.144Z,13.60
2023-12-31T01:24:34.139Z,7.67
2023-12-31T01:27:01.324Z,8.47
2023-12-31T01:29:28.237Z,11.40
2023-12-31T01:31:55.489Z,10.23
2023-12-31T01:34:22.487Z,16.23
2023-12-31T01:36:49.707Z,8.33
2023-12-31T01:39:16.699Z,8.80
2023-12-31T01:41:43.884Z,6.90
2023-12-31T01:44:10.834Z,8.23
2023-12-31T01:46:38.145Z,8.07
2023-12-31T01:49:05.749Z,12.47
2023-12-31T01:51:34.121Z,7.03
2023-12-31T01:54:05.528Z,10.20
2023-12-31T01:56:34.672Z,5.53
2023-12-31T01:59:02.932Z,7.77
2023-12-31T02:01:31.961Z,8.67
2023-12-31T02:03:58.884Z,7.47
2023-12-31T02:06:28.005Z,6.57
2023-12-31T02:08:54.959Z,8.20
2023-12-31T02:11:22.347Z,7.10
2023-12-31T02:13:49.271Z,7.80
2023-12-31T02:16:17.090Z,8.33
2023-12-31T02:18:44.417Z,6.13
2023-12-31T02:21:13.857Z,6.80
2023-12-31T02:23:41.595Z,7.10
2023-12-31T02:26:10.522Z,6.93
2023-12-31T02:28:37.928Z,7.10
2023-12-31T02:31:05.928Z,7.77
2023-12-31T02:33:36.087Z,9.97
2023-12-31T02:36:03.840Z,9.10
2023-12-31T02:38:30.923Z,8.00
2023-12-31T02:40:58.202Z,9.73
2023-12-31T02:43:25.262Z,8.93
2023-12-31T02:45:52.479Z,7.33
2023-12-31T02:48:19.603Z,8.47
2023-12-31T02:50:46.881Z,7.07
2023-12-31T02:53:14.089Z,7.17
2023-12-31T02:55:41.303Z,6.67
2023-12-31T02:58:08.447Z,7.00
2023-12-31T03:00:35.683Z,7.13
2023-12-31T03:03:02.909Z,8.00
2023-12-31T03:05:30.750Z,7.73
2023-12-31T03:07:57.696Z,9.77
2023-12-31T03:10:25.019Z,8.13
2023-12-31T03:12:52.070Z,9.93
2023-12-31T03:15:20.597Z,9.27
2023-12-31T03:17:47.558Z,11.73
2023-12-31T03:20:14.974Z,11.30
2023-12-31T03:22:42.953Z,10.37
2023-12-31T03:25:11.910Z,10.90
2023-12-31T03:27:38.912Z,11.17
2023-12-31T03:30:08.180Z,9.47
2023-12-31T03:32:35.474Z,13.97
2023-12-31T03:35:03.674Z,12.67
2023-12-31T03:37:31.367Z,7.40
2023-12-31T03:39:58.629Z,8.03
2023-12-31T03:42:25.552Z,14.53
2023-12-31T03:44:53.053Z,9.37
2023-12-31T03:47:20.291Z,16.57
2023-12-31T03:49:47.625Z,11.93
2023-12-31T03:52:14.545Z,11.00
2023-12-31T03:54:44.683Z,14.43
2023-12-31T03:57:11.606Z,12.90
2023-12-31T03:59:40.192Z,10.03
2023-12-31T04:02:07.188Z,8.03
2023-12-31T04:04:34.664Z,16.70
2023-12-31T04:07:02.006Z,11.23
2023-12-31T04:09:29.577Z,14.13
2023-12-31T04:11:56.535Z,11.03
2023-12-31T04:14:23.690Z,35.50
2023-12-31T04:16:50.708Z,14.77
2023-12-31T04:19:17.972Z,11.97
2023-12-31T04:21:44.944Z,10.83
2023-12-31T04:24:12.198Z,14.60
2023-12-31T04:26:43.392Z,27.63
2023-12-31T04:29:11.990Z,13.80
2023-12-31T04:31:43.378Z,10.13
2023-12-31T04:34:13.713Z,10.60
2023-12-31T04:36:45.060Z,15.10
2023-12-31T04:39:12.867Z,11.20
2023-12-31T04:41:39.851Z,10.83
2023-12-31T04:44:07.862Z,11.70
2023-12-31T04:46:35.201Z,11.37
2023-12-31T04:49:02.467Z,10.33
2023-12-31T04:51:31.074Z,12.23
2023-12-31T04:53:59.027Z,11.67
2023-12-31T04:56:26.919Z,10.30
2023-12-31T04:58:57.080Z,11.30
2023-12-31T05:01:24.597Z,9.50
2023-12-31T05:03:52.063Z,9.93
2023-12-31T05:06:19.508Z,8.17
2023-12-31T05:08:46.856Z,24.73
2023-12-31T05:11:14.839Z,9.03
2023-12-31T05:13:43.295Z,8.17
2023-12-31T05:16:14.900Z,9.47
2023-12-31T05:18:45.037Z,9.23
2023-12-31T05:21:13.258Z,12.07
2023-12-31T05:23:40.866Z,9.67
2023-12-31T05:26:07.769Z,10.63
2023-12-31T05:28:35.059Z,14.13
2023-12-31T05:31:01.967Z,10.53
2023-12-31T05:33:29.205Z,10.93
2023-12-31T05:35:56.266Z,11.20
2023-12-31T05:38:23.520Z,13.90
2023-12-31T05:40:50.609Z,28.50
2023-12-31T05:43:17.957Z,14.07
2023-12-31T05:45:44.866Z,11.83
2023-12-31T05:48:13.718Z,9.67
2023-12-31T05:50:40.937Z,9.00
2023-12-31T05:53:08.249Z,8.70
2023-12-31T05:55:35.160Z,8.97
2023-12-31T05:58:02.381Z,8.27
2023-12-31T06:00:29.234Z,9.17
2023-12-31T06:02:56.810Z,8.73
2023-12-31T06:05:23.891Z,7.27
2023-12-31T06:07:51.254Z,7.87
2023-12-31T06:10:18.357Z,8.57
2023-12-31T06:12:45.764Z,8.30
2023-12-31T06:15:13.196Z,11.30
2023-12-31T06:17:40.857Z,8.43
2023-12-31T06:20:08.497Z,7.93
2023-12-31T06:22:36.427Z,8.30
2023-12-31T06:25:03.737Z,20.80
2023-12-31T06:27:31.156Z,18.00
2023-12-31T06:29:57.993Z,11.57
2023-12-31T06:32:25.503Z,7.93
2023-12-31T06:34:52.550Z,10.40
2023-12-31T06:37:19.889Z,11.03
2023-12-31T06:39:47.902Z,10.10
2023-12-31T06:42:15.175Z,15.53
2023-12-31T06:44:42.448Z,12.43
2023-12-31T06:47:09.704Z,13.93
2023-12-31T06:49:36.945Z,10.93
2023-12-31T06:52:05.238Z,11.27
2023-12-31T06:54:32.264Z,11.03
2023-12-31T06:56:59.464Z,9.13
2023-12-31T06:59:26.347Z,8.80
2023-12-31T07:01:53.587Z,9.60
2023-12-31T07:04:20.684Z,11.20
2023-12-31T07:06:48.971Z,16.97
2023-12-31T07:09:15.867Z,11.93
2023-12-31T07:11:43.141Z,12.23
2023-12-31T07:14:10.011Z,14.30
2023-12-31T07:16:37.265Z,14.03
2023-12-31T07:19:04.418Z,12.33
2023-12-31T07:21:31.765Z,14.60
2023-12-31T07:23:59.577Z,24.60
2023-12-31T07:26:27.653Z,17.17
2023-12-31T07:29:08.862Z,23.47
2023-12-31T07:31:41.437Z,22.40
2023-12-31T07:34:08.728Z,23.03
2023-12-31T07:36:36.636Z,21.60
2023-12-31T07:39:05.508Z,20.97
2023-12-31T07:41:33.027Z,22.73
2023-12-31T07:44:01.438Z,22.10
2023-12-31T07:46:30.130Z,24.23
2023-12-31T07:48:57.930Z,25.23
2023-12-31T07:51:25.433Z,26.27
2023-12-31T07:53:53.236Z,17.37
2023-12-31T07:56:20.579Z,16.00
2023-12-31T07:58:47.673Z,14.23
2023-12-31T08:01:15.255Z,17.57
2023-12-31T08:03:42.274Z,18.17
2023-12-31T08:06:09.656Z,15.17
2023-12-31T08:08:36.671Z,14.03
2023-12-31T08:11:04.544Z,14.03
2023-12-31T08:13:32.036Z,14.70
2023-12-31T08:16:00.238Z,14.33
2023-12-31T08:18:27.215Z,14.07
2023-12-31T08:20:54.449Z,14.10
2023-12-31T08:23:21.442Z,13.60
2023-12-31T08:25:48.710Z,13.57
2023-12-31T08:28:16.187Z,13.17
2023-12-31T08:30:43.649Z,14.80
2023-12-31T08:33:10.758Z,16.83
2023-12-31T08:35:38.368Z,16.53
2023-12-31T08:38:05.301Z,13.37
2023-12-31T08:40:32.895Z,13.80
2023-12-31T08:42:59.876Z,14.83
2023-12-31T08:45:27.261Z,21.00
2023-12-31T08:47:54.509Z,14.80
2023-12-31T08:50:22.382Z,13.33
2023-12-31T08:52:49.584Z,14.97
2023-12-31T08:55:17.698Z,18.83
2023-12-31T08:57:50.503Z,14.93
2023-12-31T09:00:18.738Z,14.30
2023-12-31T09:02:46.615Z,13.83
2023-12-31T09:05:14.095Z,18.93
2023-12-31T09:07:41.852Z,14.10
2023-12-31T09:10:09.552Z,14.70
2023-12-31T09:12:36.764Z,15.13
2023-12-31T09:15:04.620Z,13.47
2023-12-31T09:17:33.649Z,15.83
2023-12-31T09:20:06.448Z,13.73
2023-12-31T09:22:34.105Z,15.27
2023-12-31T09:25:01.536Z,14.27
2023-12-31T09:27:28.589Z,14.77
2023-12-31T09:29:55.810Z,15.70
2023-12-31T09:32:22.806Z,15.90
2023-12-31T09:34:50.142Z,14.23
2023-12-31T09:37:20.736Z,19.10
2023-12-31T09:39:49.097Z,25.93
2023-12-31T09:42:22.018Z,12.97
2023-12-31T09:44:50.791Z,14.67
2023-12-31T09:47:17.805Z,17.73
2023-12-31T09:49:45.464Z,16.10
2023-12-31T09:52:12.841Z,22.83
2023-12-31T09:54:41.826Z,19.37
2023-12-31T09:57:13.053Z,18.13
2023-12-31T09:59:43.262Z,16.77
2023-12-31T10:02:14.238Z,20.40
2023-12-31T10:04:41.601Z,13.37
2023-12-31T10:07:09.133Z,13.33
2023-12-31T10:09:37.042Z,12.43
2023-12-31T10:12:04.017Z,13.03
2023-12-31T10:14:31.277Z,15.07
2023-12-31T10:16:58.383Z,13.17
2023-12-31T10:19:25.796Z,16.13
2023-12-31T10:21:52.753Z,13.73
2023-12-31T10:24:30.480Z,18.33
2023-12-31T10:26:57.768Z,14.17
2023-12-31T10:29:25.736Z,18.73
2023-12-31T10:31:53.869Z,14.43
2023-12-31T10:34:21.366Z,19.13
2023-12-31T10:36:49.085Z,17.47
2023-12-31T10:39:37.799Z,29.40
2023-12-31T10:42:06.440Z,17.77
2023-12-31T10:44:35.631Z,18.63
2023-12-31T10:47:07.321Z,18.27
2023-12-31T10:49:35.721Z,17.57
2023-12-31T10:52:04.598Z,15.03
2023-12-31T10:54:44.005Z,13.40
2023-12-31T10:57:11.215Z,15.57
2023-12-31T10:59:42.188Z,12.70
2023-12-31T11:02:21.601Z,17.87
2023-12-31T11:04:50.105Z,15.43
2023-12-31T11:07:19.499Z,14.23
2023-12-31T11:09:47.896Z,27.13
2023-12-31T11:12:16.187Z,18.97
2023-12-31T11:14:47.756Z,12.23
2023-12-31T11:17:40.223Z,13.83
2023-12-31T11:20:10.506Z,15.40
2023-12-31T11:22:54.541Z,12.00
2023-12-31T11:25:23.163Z,22.37
2023-12-31T11:27:52.140Z,32.43
2023-12-31T11:30:52.915Z,21.50
2023-12-31T11:33:23.915Z,14.30
2023-12-31T11:35:54.906Z,16.57
2023-12-31T11:38:21.943Z,29.23
2023-12-31T11:40:55.014Z,60.83
2023-12-31T11:43:22.400Z,37.60
2023-12-31T11:45:51.100Z,16.67
2023-12-31T11:48:20.983Z,43.70
2023-12-31T11:50:52.770Z,73.07
2023-12-31T11:53:23.148Z,54.20
2023-12-31T11:55:54.917Z,56.87
2023-12-31T11:58:24.839Z,66.97
2023-12-31T12:00:52.244Z,48.97
2023-12-31T12:03:22.062Z,71.30
2023-12-31T12:05:53.037Z,52.73
2023-12-31T12:08:23.061Z,43.83
2023-12-31T12:10:50.331Z,60.10
2023-12-31T12:13:17.389Z,46.03
2023-12-31T12:15:44.551Z,43.33
2023-12-31T12:18:28.144Z,26.37
2023-12-31T12:20:56.705Z,31.83
2023-12-31T12:23:24.853Z,38.00
2023-12-31T12:25:52.974Z,37.03
2023-12-31T12:28:20.639Z,24.60
2023-12-31T12:30:49.691Z,59.73
2023-12-31T12:33:17.140Z,48.00
2023-12-31T12:35:45.881Z,39.67
2023-12-31T12:38:13.966Z,60.30
2023-12-31T12:40:43.367Z,88.80
2023-12-31T12:43:13.640Z,47.07
2023-12-31T12:45:41.204Z,38.23
2023-12-31T12:48:08.644Z,42.37
2023-12-31T12:50:36.255Z,27.00
2023-12-31T12:53:04.050Z,44.13
2023-12-31T12:55:31.701Z,44.33
2023-12-31T12:57:58.568Z,44.63
2023-12-31T13:00:26.857Z,29.80
2023-12-31T13:02:53.772Z,53.00
2023-12-31T13:05:21.105Z,24.13
2023-12-31T13:07:48.831Z,26.63
2023-12-31T13:10:16.032Z,22.03
2023-12-31T13:12:43.052Z,55.47
2023-12-31T13:15:10.460Z,43.83
2023-12-31T13:17:37.569Z,37.20
2023-12-31T13:20:07.144Z,36.23
2023-12-31T13:22:34.209Z,40.73
2023-12-31T13:25:01.431Z,35.97
2023-12-31T13:27:30.556Z,26.97
2023-12-31T13:29:57.741Z,39.10
2023-12-31T13:32:24.786Z,46.97
2023-12-31T13:34:52.075Z,77.03
2023-12-31T13:37:18.948Z,76.27
2023-12-31T13:39:46.274Z,54.57
2023-12-31T13:42:13.133Z,38.10
2023-12-31T13:44:40.465Z,66.97
2023-12-31T13:47:07.610Z,157.57
2023-12-31T13:49:35.121Z,115.17
2023-12-31T13:52:03.659Z,64.07
2023-12-31T13:54:30.831Z,61.17
2023-12-31T13:56:57.770Z,109.10
2023-12-31T13:59:24.971Z,77.93
2023-12-31T14:01:51.979Z,55.93
2023-12-31T14:04:19.240Z,53.30
2023-12-31T14:06:46.466Z,42.50
2023-12-31T14:09:14.338Z,75.80
2023-12-31T14:11:43.149Z,53.73
2023-12-31T14:14:11.224Z,45.10
2023-12-31T14:16:42.493Z,42.37
2023-12-31T14:19:19.732Z,78.57
2023-12-31T14:21:53.866Z,73.97
2023-12-31T14:24:21.206Z,50.93
2023-12-31T14:26:48.168Z,42.37
2023-12-31T14:29:15.731Z,34.60
2023-12-31T14:31:42.687Z,37.70
2023-12-31T14:34:12.693Z,33.23
2023-12-31T14:36:40.090Z,40.50
2023-12-31T14:39:08.757Z,57.60
2023-12-31T14:41:35.899Z,55.80
2023-12-31T14:44:04.838Z,52.40
2023-12-31T14:46:31.990Z,57.50
2023-12-31T14:49:01.365Z,43.33
2023-12-31T14:51:29.248Z,51.07
2023-12-31T14:53:56.604Z,53.60
2023-12-31T14:56:25.520Z,39.90
2023-12-31T14:58:52.867Z,30.47
2023-12-31T15:01:20.213Z,81.43
2023-12-31T15:03:47.709Z,54.50
2023-12-31T15:06:14.587Z,41.03
2023-12-31T15:08:41.926Z,31.30
2023-12-31T15:11:13.798Z,23.77
2023-12-31T15:13:45.145Z,74.37
2023-12-31T15:16:12.048Z,41.00
2023-12-31T15:18:39.564Z,36.23
2023-12-31T15:21:06.500Z,31.23
2023-12-31T15:23:35.200Z,34.43
2023-12-31T15:26:03.387Z,27.90
2023-12-31T15:28:30.773Z,21.73
2023-12-31T15:30:57.760Z,28.43
2023-12-31T15:33:25.447Z,103.20
2023-12-31T15:35:53.088Z,80.73
2023-12-31T15:38:20.393Z,62.87
2023-12-31T15:40:48.022Z,57.03
2023-12-31T15:43:15.821Z,60.03
2023-12-31T15:45:42.826Z,127.87
2023-12-31T15:48:10.204Z,79.37
2023-12-31T15:50:37.837Z,50.27
2023-12-31T15:53:08.291Z,67.77
2023-12-31T15:55:35.579Z,40.30
2023-12-31T15:58:03.307Z,27.53
2023-12-31T16:00:30.536Z,20.70
2023-12-31T16:02:57.777Z,18.77
2023-12-31T16:05:26.388Z,24.50
2023-12-31T16:07:55.125Z,59.27
2023-12-31T16:10:22.474Z,45.00
2023-12-31T16:12:49.691Z,36.67
2023-12-31T16:15:16.601Z,42.23
2023-12-31T16:17:43.982Z,46.70
2023-12-31T16:20:11.799Z,46.90
2023-12-31T16:22:39.143Z,53.33
2023-12-31T16:25:07.030Z,61.87
2023-12-31T16:27:34.189Z,125.93
2023-12-31T16:30:01.320Z,71.87
2023-12-31T16:32:28.663Z,69.23
2023-12-31T16:34:55.746Z,65.67
2023-12-31T16:37:25.499Z,96.30
2023-12-31T16:39:52.499Z,110.27
2023-12-31T16:42:20.476Z,64.90
2023-12-31T16:44:47.879Z,36.87
2023-12-31T16:47:16.040Z,45.43
2023-12-31T16:49:43.006Z,115.97
2023-12-31T16:52:10.723Z,72.97
2023-12-31T16:54:37.599Z,24.27
2023-12-31T16:57:04.896Z,32.00
2023-12-31T16:59:31.753Z,58.67
2023-12-31T17:01:59.051Z,38.60
2023-12-31T17:04:26.069Z,30.57
2023-12-31T17:06:53.712Z,28.73
2023-12-31T17:09:21.677Z,24.87
2023-12-31T17:11:48.931Z,27.33
2023-12-31T17:14:16.054Z,29.63
2023-12-31T17:16:44.482Z,54.33
2023-12-31T17:19:11.646Z,57.97
2023-12-31T17:21:38.902Z,110.93
2023-12-31T17:24:06.251Z,48.30
2023-12-31T17:26:33.643Z,33.60
2023-12-31T17:29:00.774Z,24.43
2023-12-31T17:31:28.912Z,23.10
2023-12-31T17:33:56.112Z,20.27
2023-12-31T17:36:24.682Z,28.93
2023-12-31T17:38:51.680Z,32.70
2023-12-31T17:41:18.899Z,42.17
2023-12-31T17:43:45.844Z,69.17
2023-12-31T17:46:12.990Z,45.20
2023-12-31T17:48:40.031Z,40.77
2023-12-31T17:51:07.543Z,46.67
2023-12-31T17:53:35.785Z,79.93
2023-12-31T17:56:03.185Z,67.00
2023-12-31T17:58:30.218Z,56.17
2023-12-31T18:00:57.654Z,50.30
2023-12-31T18:03:24.636Z,62.93
2023-12-31T18:05:51.925Z,75.40
2023-12-31T18:08:18.896Z,82.93
2023-12-31T18:10:46.225Z,61.60
2023-12-31T18:13:13.137Z,43.23
2023-12-31T18:15:40.361Z,34.43
2023-12-31T18:18:07.812Z,21.80
2023-12-31T18:20:35.330Z,21.07
2023-12-31T18:23:02.362Z,18.87
2023-12-31T18:25:29.671Z,24.63
2023-12-31T18:27:56.623Z,29.93
2023-12-31T18:30:28.590Z,40.13
2023-12-31T18:32:59.103Z,38.43
2023-12-31T18:35:26.355Z,36.57
2023-12-31T18:37:53.657Z,27.50
2023-12-31T18:40:20.982Z,26.43
2023-12-31T18:42:47.882Z,30.87
2023-12-31T18:45:15.161Z,36.77
2023-12-31T18:47:42.075Z,42.40
2023-12-31T18:50:10.073Z,36.87
2023-12-31T18:52:37.106Z,33.33
2023-12-31T18:55:04.742Z,22.90
2023-12-31T18:57:31.726Z,22.13
2023-12-31T18:59:58.921Z,23.97
2023-12-31T19:02:25.901Z,25.87
2023-12-31T19:04:53.198Z,26.27
2023-12-31T19:07:20.186Z,28.50
2023-12-31T19:09:47.539Z,31.83
2023-12-31T19:12:14.493Z,28.90
2023-12-31T19:14:41.729Z,26.33
2023-12-31T19:17:08.666Z,36.33
2023-12-31T19:19:36.201Z,27.13
2023-12-31T19:22:03.273Z,23.80
2023-12-31T19:24:30.560Z,23.47
2023-12-31T19:26:57.733Z,21.73
2023-12-31T19:29:24.951Z,19.87
2023-12-31T19:31:51.969Z,21.77
2023-12-31T19:34:19.319Z,23.43
2023-12-31T19:36:46.673Z,23.60
2023-12-31T19:39:13.844Z,19.67
2023-12-31T19:41:40.748Z,21.47
2023-12-31T19:44:23.076Z,21.50
2023-12-31T19:46:56.122Z,20.80
2023-12-31T19:49:23.324Z,22.73
2023-12-31T19:51:53.268Z,25.90
2023-12-31T19:54:20.649Z,23.23
2023-12-31T19:56:47.525Z,25.47
2023-12-31T19:59:14.893Z,20.63
2023-12-31T20:01:41.984Z,17.03
2023-12-31T20:04:09.430Z,14.57
2023-12-31T20:06:36.843Z,13.83
2023-12-31T20:09:04.159Z,20.10
2023-12-31T20:11:31.118Z,17.23
2023-12-31T20:13:58.329Z,17.87
2023-12-31T20:16:25.320Z,18.13
2023-12-31T20:18:53.057Z,17.13
2023-12-31T20:21:20.374Z,18.43
2023-12-31T20:23:47.742Z,19.37
2023-12-31T20:26:14.676Z,17.67
2023-12-31T20:28:42.050Z,18.97
2023-12-31T20:31:09.008Z,20.00
2023-12-31T20:33:36.299Z,17.67
2023-12-31T20:36:07.827Z,17.80
2023-12-31T20:38:37.944Z,18.80
2023-12-31T20:41:05.748Z,19.90
2023-12-31T20:43:33.710Z,19.57
2023-12-31T20:46:00.740Z,17.50
2023-12-31T20:48:28.138Z,17.27
2023-12-31T20:50:55.074Z,16.33
2023-12-31T20:53:23.858Z,17.33
2023-12-31T20:55:51.689Z,17.37
2023-12-31T20:58:19.024Z,16.60
2023-12-31T21:00:45.954Z,17.80
2023-12-31T21:03:13.494Z,16.83
2023-12-31T21:05:40.816Z,16.80
2023-12-31T21:08:08.333Z,18.43
2023-12-31T21:10:36.151Z,16.93
2023-12-31T21:13:04.131Z,16.83
2023-12-31T21:15:32.219Z,17.80
2023-12-31T21:17:59.674Z,19.90
2023-12-31T21:20:26.601Z,15.97
2023-12-31T21:22:55.616Z,16.43
2023-12-31T21:25:23.281Z,17.13
2023-12-31T21:27:51.035Z,17.00
2023-12-31T21:30:18.018Z,16.77
2023-12-31T21:32:45.339Z,14.73
2023-12-31T21:35:12.354Z,16.47
2023-12-31T21:37:39.649Z,14.73
2023-12-31T21:40:07.212Z,16.23
2023-12-31T21:42:34.452Z,14.13
2023-12-31T21:45:01.363Z,13.17
2023-12-31T21:47:28.786Z,15.70
2023-12-31T21:49:55.682Z,16.73
2023-12-31T21:52:23.022Z,16.33
2023-12-31T21:54:50.100Z,17.57
2023-12-31T21:57:24.291Z,14.70
2023-12-31T21:59:52.163Z,13.20
2023-12-31T22:02:20.821Z,17.37
2023-12-31T22:04:48.652Z,16.00
2023-12-31T22:07:15.868Z,15.97
2023-12-31T22:09:42.853Z,15.33
2023-12-31T22:12:11.274Z,16.70
2023-12-31T22:14:38.153Z,14.70
2023-12-31T22:17:06.681Z,15.33
2023-12-31T22:19:46.972Z,14.83
2023-12-31T22:22:14.339Z,15.87
2023-12-31T22:24:41.395Z,13.13
2023-12-31T22:27:08.586Z,14.47
2023-12-31T22:29:35.471Z,17.07
2023-12-31T22:32:03.691Z,24.97
2023-12-31T22:34:34.499Z,19.77
2023-12-31T22:37:01.698Z,22.87
2023-12-31T22:39:28.953Z,36.80
2023-12-31T22:41:56.120Z,20.03
2023-12-31T22:44:22.975Z,32.63
2023-12-31T22:46:50.248Z,19.33
2023-12-31T22:49:17.097Z,27.83
2023-12-31T22:51:44.397Z,19.37
2023-12-31T22:54:11.390Z,25.63
2023-12-31T22:56:38.671Z,14.93
2023-12-31T22:59:05.638Z,20.00
2023-12-31T23:01:32.907Z,19.97
2023-12-31T23:03:59.862Z,19.43
2023-12-31T23:06:27.583Z,14.00
2023-12-31T23:08:54.636Z,16.10
2023-12-31T23:11:22.191Z,19.17
2023-12-31T23:13:49.270Z,19.03
2023-12-31T23:16:16.875Z,37.87
2023-12-31T23:18:44.478Z,22.77
2023-12-31T23:21:11.743Z,19.10
2023-12-31T23:23:38.933Z,21.17
2023-12-31T23:26:06.257Z,19.97
2023-12-31T23:28:34.793Z,16.20
2023-12-31T23:31:02.374Z,22.13
2023-12-31T23:33:29.521Z,41.37
2023-12-31T23:35:56.796Z,26.10
2023-12-31T23:38:23.693Z,19.77
2023-12-31T23:40:50.921Z,25.23
2023-12-31T23:43:17.844Z,21.13
2023-12-31T23:45:45.073Z,20.03
2023-12-31T23:48:12.084Z,37.93
2023-12-31T23:50:39.407Z,24.40
2023-12-31T23:53:06.432Z,19.63
2023-12-31T23:55:35.962Z,28.30
2023-12-31T23:58:08.373Z,33.27
